Terminal Aerodrome Forecast
Issued by NWS Shreveport, LA

Home | Current Version | Previous Version | Text Only | Print | Product List | Glossary On
Versions: 1 2 3 4 5 6 7 8 9 10 11 12 13 14
000
FTUS44 KSHV 201700
TAFSHV
TAF
KSHV 201720Z 2018/2118 35003KT P6SM SCT280
     FM210100 00000KT P6SM SCT045
     FM211300 10004KT P6SM SKC=

USA.gov is the U.S. government's official web portal to all federal, state and local government web resources and services.